sensor_id;sensor_type;location;lat;lon;timestamp;temperature;humidity
18426;DHT22;9340;48.756;9.226;2022-12-17T00:01:44;-3.70;99.90
18426;DHT22;9340;48.756;9.226;2022-12-17T00:04:28;-3.60;99.90
18426;DHT22;9340;48.756;9.226;2022-12-17T00:07:13;-3.70;99.90
18426;DHT22;9340;48.756;9.226;2022-12-17T00:09:58;-3.70;99.90
18426;DHT22;9340;48.756;9.226;2022-12-17T00:12:45;-3.80;99.90
18426;DHT22;9340;48.756;9.226;2022-12-17T00:15:30;-3.90;99.90
18426;DHT22;9340;48.756;9.226;2022-12-17T00:18:14;-4.00;99.90
18426;DHT22;9340;48.756;9.226;2022-12-17T00:20:59;-4.00;99.90
18426;DHT22;9340;48.756;9.226;2022-12-17T00:23:44;-4.00;99.90
18426;DHT22;9340;48.756;9.226;2022-12-17T00:26:30;-3.90;99.90
18426;DHT22;9340;48.756;9.226;2022-12-17T00:29:15;-4.10;99.90
18426;DHT22;9340;48.756;9.226;2022-12-17T00:31:59;-4.10;99.90
18426;DHT22;9340;48.756;9.226;2022-12-17T00:34:44;-4.20;99.90
18426;DHT22;9340;48.756;9.226;2022-12-17T00:37:28;-4.30;99.90
18426;DHT22;9340;48.756;9.226;2022-12-17T00:40:13;-4.30;99.90
18426;DHT22;9340;48.756;9.226;2022-12-17T00:43:04;-4.30;99.90
18426;DHT22;9340;48.756;9.226;2022-12-17T00:45:49;-4.30;99.90
18426;DHT22;9340;48.756;9.226;2022-12-17T00:48:34;-4.40;99.90
18426;DHT22;9340;48.756;9.226;2022-12-17T00:51:19;-4.40;99.90
18426;DHT22;9340;48.756;9.226;2022-12-17T00:54:03;-4.40;99.90
18426;DHT22;9340;48.756;9.226;2022-12-17T00:56:48;-4.40;99.90
18426;DHT22;9340;48.756;9.226;2022-12-17T00:59:33;-4.50;99.90
18426;DHT22;9340;48.756;9.226;2022-12-17T01:02:18;-4.50;99.90
18426;DHT22;9340;48.756;9.226;2022-12-17T01:05:03;-4.60;99.90
18426;DHT22;9340;48.756;9.226;2022-12-17T01:07:48;-4.70;99.90
18426;DHT22;9340;48.756;9.226;2022-12-17T01:10:32;-4.70;99.90
18426;DHT22;9340;48.756;9.226;2022-12-17T01:13:17;-4.70;99.90
18426;DHT22;9340;48.756;9.226;2022-12-17T01:16:05;-4.70;99.90
18426;DHT22;9340;48.756;9.226;2022-12-17T01:18:51;-4.80;99.90
18426;DHT22;9340;48.756;9.226;2022-12-17T01:21:36;-4.70;99.90
18426;DHT22;9340;48.756;9.226;2022-12-17T01:24:20;-4.80;99.90
18426;DHT22;9340;48.756;9.226;2022-12-17T01:27:04;-4.80;99.90
18426;DHT22;9340;48.756;9.226;2022-12-17T01:29:48;-4.80;99.90
18426;DHT22;9340;48.756;9.226;2022-12-17T01:32:34;-4.90;99.90
18426;DHT22;9340;48.756;9.226;2022-12-17T01:35:19;-4.90;99.90
18426;DHT22;9340;48.756;9.226;2022-12-17T01:38:02;-5.00;99.90
18426;DHT22;9340;48.756;9.226;2022-12-17T01:40:50;-5.00;99.90
18426;DHT22;9340;48.756;9.226;2022-12-17T01:43:37;-5.00;99.90
18426;DHT22;9340;48.756;9.226;2022-12-17T01:46:23;-5.00;99.90
18426;DHT22;9340;48.756;9.226;2022-12-17T01:49:11;-5.10;99.90
18426;DHT22;9340;48.756;9.226;2022-12-17T01:51:56;-5.10;99.90
18426;DHT22;9340;48.756;9.226;2022-12-17T01:54:41;-5.20;99.90
18426;DHT22;9340;48.756;9.226;2022-12-17T01:57:26;-5.10;99.90
18426;DHT22;9340;48.756;9.226;2022-12-17T02:00:25;-5.20;99.90
18426;DHT22;9340;48.756;9.226;2022-12-17T02:03:13;-5.20;99.90
18426;DHT22;9340;48.756;9.226;2022-12-17T02:06:03;-5.10;99.90
18426;DHT22;9340;48.756;9.226;2022-12-17T02:09:00;-5.20;99.90
18426;DHT22;9340;48.756;9.226;2022-12-17T02:11:53;-5.10;99.90
18426;DHT22;9340;48.756;9.226;2022-12-17T02:14:41;-5.20;99.90
18426;DHT22;9340;48.756;9.226;2022-12-17T02:17:31;-5.40;99.90
18426;DHT22;9340;48.756;9.226;2022-12-17T02:20:33;-5.40;99.90
18426;DHT22;9340;48.756;9.226;2022-12-17T02:23:30;-5.40;99.90
18426;DHT22;9340;48.756;9.226;2022-12-17T02:26:27;-5.30;99.90
18426;DHT22;9340;48.756;9.226;2022-12-17T02:29:12;-5.40;99.90
18426;DHT22;9340;48.756;9.226;2022-12-17T02:31:57;-5.40;99.90
18426;DHT22;9340;48.756;9.226;2022-12-17T02:34:44;-5.40;99.90
18426;DHT22;9340;48.756;9.226;2022-12-17T02:37:29;-5.40;99.90
18426;DHT22;9340;48.756;9.226;2022-12-17T02:40:29;-5.40;99.90
18426;DHT22;9340;48.756;9.226;2022-12-17T02:43:15;-5.40;99.90
18426;DHT22;9340;48.756;9.226;2022-12-17T02:46:00;-5.30;99.90
18426;DHT22;9340;48.756;9.226;2022-12-17T02:48:44;-5.20;99.90
18426;DHT22;9340;48.756;9.226;2022-12-17T02:51:29;-5.10;99.90
18426;DHT22;9340;48.756;9.226;2022-12-17T02:54:13;-5.10;99.90
18426;DHT22;9340;48.756;9.226;2022-12-17T02:56:57;-5.10;99.90
18426;DHT22;9340;48.756;9.226;2022-12-17T02:59:43;-5.00;99.90
18426;DHT22;9340;48.756;9.226;2022-12-17T03:02:27;-5.00;99.90
18426;DHT22;9340;48.756;9.226;2022-12-17T03:05:11;-5.00;99.90
18426;DHT22;9340;48.756;9.226;2022-12-17T03:07:55;-5.00;99.90
18426;DHT22;9340;48.756;9.226;2022-12-17T03:10:39;-4.90;99.90
18426;DHT22;9340;48.756;9.226;2022-12-17T03:13:26;-4.90;99.90
18426;DHT22;9340;48.756;9.226;2022-12-17T03:16:14;-4.80;99.90
18426;DHT22;9340;48.756;9.226;2022-12-17T03:19:00;-4.60;99.90
18426;DHT22;9340;48.756;9.226;2022-12-17T03:21:44;-4.40;99.90
18426;DHT22;9340;48.756;9.226;2022-12-17T03:24:29;-4.20;99.90
18426;DHT22;9340;48.756;9.226;2022-12-17T03:27:13;-4.00;99.90
18426;DHT22;9340;48.756;9.226;2022-12-17T03:29:58;-3.90;99.90
18426;DHT22;9340;48.756;9.226;2022-12-17T03:32:44;-3.70;99.90
18426;DHT22;9340;48.756;9.226;2022-12-17T03:35:28;-3.60;99.90
18426;DHT22;9340;48.756;9.226;2022-12-17T03:38:17;-3.40;99.90
18426;DHT22;9340;48.756;9.226;2022-12-17T03:41:02;-3.30;99.90
18426;DHT22;9340;48.756;9.226;2022-12-17T03:43:46;-3.30;99.90
18426;DHT22;9340;48.756;9.226;2022-12-17T03:46:30;-3.20;99.90
18426;DHT22;9340;48.756;9.226;2022-12-17T03:49:16;-3.20;99.90
18426;DHT22;9340;48.756;9.226;2022-12-17T03:52:00;-3.10;99.90
18426;DHT22;9340;48.756;9.226;2022-12-17T03:54:44;-3.00;99.90
18426;DHT22;9340;48.756;9.226;2022-12-17T03:57:28;-3.00;99.90
18426;DHT22;9340;48.756;9.226;2022-12-17T04:00:13;-2.80;99.90
18426;DHT22;9340;48.756;9.226;2022-12-17T04:02:57;-2.70;99.90
18426;DHT22;9340;48.756;9.226;2022-12-17T04:05:43;-2.60;99.90
18426;DHT22;9340;48.756;9.226;2022-12-17T04:08:27;-2.50;99.90
18426;DHT22;9340;48.756;9.226;2022-12-17T04:11:12;-2.60;99.90
18426;DHT22;9340;48.756;9.226;2022-12-17T04:13:56;-2.50;99.90
18426;DHT22;9340;48.756;9.226;2022-12-17T04:16:41;-2.50;99.90
18426;DHT22;9340;48.756;9.226;2022-12-17T04:19:26;-2.40;99.90
18426;DHT22;9340;48.756;9.226;2022-12-17T04:22:11;-2.40;99.90
18426;DHT22;9340;48.756;9.226;2022-12-17T04:24:56;-2.40;99.90
18426;DHT22;9340;48.756;9.226;2022-12-17T04:27:54;-2.40;99.90
18426;DHT22;9340;48.756;9.226;2022-12-17T04:30:44;-2.30;99.90
18426;DHT22;9340;48.756;9.226;2022-12-17T04:33:28;-2.50;99.90
18426;DHT22;9340;48.756;9.226;2022-12-17T04:36:13;-2.60;99.90
18426;DHT22;9340;48.756;9.226;2022-12-17T04:38:58;-2.70;99.90
18426;DHT22;9340;48.756;9.226;2022-12-17T04:41:42;-2.50;99.90
18426;DHT22;9340;48.756;9.226;2022-12-17T04:44:26;-2.40;99.90
18426;DHT22;9340;48.756;9.226;2022-12-17T04:47:11;-2.30;99.90
18426;DHT22;9340;48.756;9.226;2022-12-17T04:49:55;-2.30;99.90
18426;DHT22;9340;48.756;9.226;2022-12-17T04:52:39;-2.30;99.90
18426;DHT22;9340;48.756;9.226;2022-12-17T04:55:25;-2.20;99.90
18426;DHT22;9340;48.756;9.226;2022-12-17T04:58:10;-2.20;99.90
18426;DHT22;9340;48.756;9.226;2022-12-17T05:00:54;-2.20;99.90
18426;DHT22;9340;48.756;9.226;2022-12-17T05:03:38;-2.30;99.90
18426;DHT22;9340;48.756;9.226;2022-12-17T05:06:24;-2.30;99.90
18426;DHT22;9340;48.756;9.226;2022-12-17T05:09:08;-2.20;99.90
18426;DHT22;9340;48.756;9.226;2022-12-17T05:11:54;-2.20;99.90
18426;DHT22;9340;48.756;9.226;2022-12-17T05:14:38;-2.20;99.90
18426;DHT22;9340;48.756;9.226;2022-12-17T05:17:23;-2.40;99.90
18426;DHT22;9340;48.756;9.226;2022-12-17T05:20:08;-2.20;99.90
18426;DHT22;9340;48.756;9.226;2022-12-17T05:22:52;-2.20;99.90
18426;DHT22;9340;48.756;9.226;2022-12-17T05:25:37;-2.00;99.90
18426;DHT22;9340;48.756;9.226;2022-12-17T05:28:22;-1.90;99.90
18426;DHT22;9340;48.756;9.226;2022-12-17T05:31:07;-1.90;99.90
18426;DHT22;9340;48.756;9.226;2022-12-17T05:33:51;-1.90;99.90
18426;DHT22;9340;48.756;9.226;2022-12-17T05:36:35;-1.90;99.90
18426;DHT22;9340;48.756;9.226;2022-12-17T05:39:19;-1.90;99.90
18426;DHT22;9340;48.756;9.226;2022-12-17T05:42:04;-1.90;99.90
18426;DHT22;9340;48.756;9.226;2022-12-17T05:44:49;-1.80;99.90
18426;DHT22;9340;48.756;9.226;2022-12-17T05:47:33;-1.90;99.90
18426;DHT22;9340;48.756;9.226;2022-12-17T05:50:17;-1.90;99.90
18426;DHT22;9340;48.756;9.226;2022-12-17T05:53:02;-1.80;99.90
18426;DHT22;9340;48.756;9.226;2022-12-17T05:55:48;-1.80;99.90
18426;DHT22;9340;48.756;9.226;2022-12-17T05:58:33;-2.10;99.90
18426;DHT22;9340;48.756;9.226;2022-12-17T06:01:18;-2.00;99.90
18426;DHT22;9340;48.756;9.226;2022-12-17T06:04:03;-1.90;99.90
18426;DHT22;9340;48.756;9.226;2022-12-17T06:06:47;-1.90;99.90
18426;DHT22;9340;48.756;9.226;2022-12-17T06:09:31;-1.90;99.90
18426;DHT22;9340;48.756;9.226;2022-12-17T06:12:16;-2.00;99.90
18426;DHT22;9340;48.756;9.226;2022-12-17T06:15:00;-1.90;99.90
18426;DHT22;9340;48.756;9.226;2022-12-17T06:17:53;-1.80;99.90
18426;DHT22;9340;48.756;9.226;2022-12-17T06:20:37;-2.00;99.90
18426;DHT22;9340;48.756;9.226;2022-12-17T06:23:22;-2.00;99.90
18426;DHT22;9340;48.756;9.226;2022-12-17T06:26:15;-2.00;99.90
18426;DHT22;9340;48.756;9.226;2022-12-17T06:28:59;-1.90;99.90
18426;DHT22;9340;48.756;9.226;2022-12-17T06:31:44;-1.80;99.90
18426;DHT22;9340;48.756;9.226;2022-12-17T06:34:29;-1.80;99.90
18426;DHT22;9340;48.756;9.226;2022-12-17T06:37:14;-2.00;99.90
18426;DHT22;9340;48.756;9.226;2022-12-17T06:39:58;-2.00;99.90
18426;DHT22;9340;48.756;9.226;2022-12-17T06:42:51;-2.00;99.90
18426;DHT22;9340;48.756;9.226;2022-12-17T06:45:36;-2.10;99.90
18426;DHT22;9340;48.756;9.226;2022-12-17T06:48:20;-2.10;99.90
18426;DHT22;9340;48.756;9.226;2022-12-17T06:51:06;-2.10;99.90
18426;DHT22;9340;48.756;9.226;2022-12-17T06:53:50;-2.10;99.90
18426;DHT22;9340;48.756;9.226;2022-12-17T06:56:34;-2.20;99.90
18426;DHT22;9340;48.756;9.226;2022-12-17T06:59:18;-2.20;99.90
18426;DHT22;9340;48.756;9.226;2022-12-17T07:02:02;-2.20;99.90
18426;DHT22;9340;48.756;9.226;2022-12-17T07:04:46;-2.20;99.90
18426;DHT22;9340;48.756;9.226;2022-12-17T07:07:33;-2.50;99.90
18426;DHT22;9340;48.756;9.226;2022-12-17T07:10:17;-2.50;99.90
18426;DHT22;9340;48.756;9.226;2022-12-17T07:13:05;-2.50;99.90
18426;DHT22;9340;48.756;9.226;2022-12-17T07:15:50;-2.40;99.90
18426;DHT22;9340;48.756;9.226;2022-12-17T07:18:34;-2.40;99.90
18426;DHT22;9340;48.756;9.226;2022-12-17T07:21:18;-2.40;99.90
18426;DHT22;9340;48.756;9.226;2022-12-17T07:24:04;-2.30;99.90
18426;DHT22;9340;48.756;9.226;2022-12-17T07:26:49;-2.20;99.90
18426;DHT22;9340;48.756;9.226;2022-12-17T07:29:33;-2.20;99.90
18426;DHT22;9340;48.756;9.226;2022-12-17T07:32:17;-2.20;99.90
18426;DHT22;9340;48.756;9.226;2022-12-17T07:35:02;-2.30;99.90
18426;DHT22;9340;48.756;9.226;2022-12-17T07:37:46;-2.20;99.90
18426;DHT22;9340;48.756;9.226;2022-12-17T07:40:31;-2.20;99.90
18426;DHT22;9340;48.756;9.226;2022-12-17T07:43:17;-2.10;99.90
18426;DHT22;9340;48.756;9.226;2022-12-17T07:46:01;-2.30;99.90
18426;DHT22;9340;48.756;9.226;2022-12-17T07:48:45;-2.50;99.90
18426;DHT22;9340;48.756;9.226;2022-12-17T07:51:29;-2.50;99.90
18426;DHT22;9340;48.756;9.226;2022-12-17T07:54:14;-2.50;99.90
18426;DHT22;9340;48.756;9.226;2022-12-17T07:56:59;-2.40;99.90
18426;DHT22;9340;48.756;9.226;2022-12-17T07:59:58;-2.30;99.90
18426;DHT22;9340;48.756;9.226;2022-12-17T08:02:43;-2.40;99.90
18426;DHT22;9340;48.756;9.226;2022-12-17T08:05:28;-2.30;99.90
18426;DHT22;9340;48.756;9.226;2022-12-17T08:08:13;-2.20;99.90
18426;DHT22;9340;48.756;9.226;2022-12-17T08:11:00;-2.10;99.90
18426;DHT22;9340;48.756;9.226;2022-12-17T08:13:45;-1.90;99.90
18426;DHT22;9340;48.756;9.226;2022-12-17T08:16:30;-1.80;99.90
18426;DHT22;9340;48.756;9.226;2022-12-17T08:19:14;-1.80;99.90
18426;DHT22;9340;48.756;9.226;2022-12-17T08:21:58;-1.80;99.90
18426;DHT22;9340;48.756;9.226;2022-12-17T08:24:43;-1.70;99.90
18426;DHT22;9340;48.756;9.226;2022-12-17T08:27:27;-1.60;99.90
18426;DHT22;9340;48.756;9.226;2022-12-17T08:30:12;-1.60;99.90
18426;DHT22;9340;48.756;9.226;2022-12-17T08:33:01;-1.50;99.90
18426;DHT22;9340;48.756;9.226;2022-12-17T08:35:50;-1.50;99.90
18426;DHT22;9340;48.756;9.226;2022-12-17T08:38:35;-1.50;99.90
18426;DHT22;9340;48.756;9.226;2022-12-17T08:41:19;-1.60;99.90
18426;DHT22;9340;48.756;9.226;2022-12-17T08:44:03;-1.40;99.90
18426;DHT22;9340;48.756;9.226;2022-12-17T08:46:49;-1.40;99.90
18426;DHT22;9340;48.756;9.226;2022-12-17T08:49:33;-1.30;99.90
18426;DHT22;9340;48.756;9.226;2022-12-17T08:52:18;-1.20;99.90
18426;DHT22;9340;48.756;9.226;2022-12-17T08:55:02;-1.40;99.90
18426;DHT22;9340;48.756;9.226;2022-12-17T08:57:52;-1.40;99.90
18426;DHT22;9340;48.756;9.226;2022-12-17T09:00:36;-1.30;99.90
18426;DHT22;9340;48.756;9.226;2022-12-17T09:03:22;-1.20;99.90
18426;DHT22;9340;48.756;9.226;2022-12-17T09:06:06;-1.40;99.90
18426;DHT22;9340;48.756;9.226;2022-12-17T09:08:50;-1.30;99.90
18426;DHT22;9340;48.756;9.226;2022-12-17T09:11:35;-1.10;99.90
18426;DHT22;9340;48.756;9.226;2022-12-17T09:14:19;-1.00;99.90
18426;DHT22;9340;48.756;9.226;2022-12-17T09:17:04;-0.80;99.90
18426;DHT22;9340;48.756;9.226;2022-12-17T09:19:49;-0.70;99.90
18426;DHT22;9340;48.756;9.226;2022-12-17T09:22:34;-0.90;99.90
18426;DHT22;9340;48.756;9.226;2022-12-17T09:25:20;-0.90;99.90
18426;DHT22;9340;48.756;9.226;2022-12-17T09:28:05;-1.00;99.90
18426;DHT22;9340;48.756;9.226;2022-12-17T09:31:00;-0.90;99.90
18426;DHT22;9340;48.756;9.226;2022-12-17T09:33:45;-0.80;99.90
18426;DHT22;9340;48.756;9.226;2022-12-17T09:36:32;-0.70;99.90
18426;DHT22;9340;48.756;9.226;2022-12-17T09:39:16;-0.80;99.90
18426;DHT22;9340;48.756;9.226;2022-12-17T09:42:05;-1.30;99.90
18426;DHT22;9340;48.756;9.226;2022-12-17T09:44:59;-1.60;99.90
18426;DHT22;9340;48.756;9.226;2022-12-17T09:47:52;-1.50;99.90
18426;DHT22;9340;48.756;9.226;2022-12-17T09:50:40;-1.20;99.90
18426;DHT22;9340;48.756;9.226;2022-12-17T09:53:31;-0.80;99.90
18426;DHT22;9340;48.756;9.226;2022-12-17T09:56:20;-0.60;99.90
18426;DHT22;9340;48.756;9.226;2022-12-17T09:59:05;-0.60;99.90
18426;DHT22;9340;48.756;9.226;2022-12-17T10:01:49;-0.60;99.90
18426;DHT22;9340;48.756;9.226;2022-12-17T10:04:37;-0.70;99.90
18426;DHT22;9340;48.756;9.226;2022-12-17T10:07:32;-0.40;99.90
18426;DHT22;9340;48.756;9.226;2022-12-17T10:10:20;-0.10;99.90
18426;DHT22;9340;48.756;9.226;2022-12-17T10:13:10;-0.10;99.90
18426;DHT22;9340;48.756;9.226;2022-12-17T10:15:55;-0.20;99.90
18426;DHT22;9340;48.756;9.226;2022-12-17T10:18:40;-0.10;99.90
18426;DHT22;9340;48.756;9.226;2022-12-17T10:21:26;0.10;99.90
18426;DHT22;9340;48.756;9.226;2022-12-17T10:24:11;0.30;99.90
18426;DHT22;9340;48.756;9.226;2022-12-17T10:26:57;0.50;99.90
18426;DHT22;9340;48.756;9.226;2022-12-17T10:29:43;0.50;99.90
18426;DHT22;9340;48.756;9.226;2022-12-17T10:32:28;0.60;99.90
18426;DHT22;9340;48.756;9.226;2022-12-17T10:35:17;0.50;99.90
18426;DHT22;9340;48.756;9.226;2022-12-17T10:38:10;0.50;99.90
18426;DHT22;9340;48.756;9.226;2022-12-17T10:40:56;0.50;99.90
18426;DHT22;9340;48.756;9.226;2022-12-17T10:43:41;0.60;99.90
18426;DHT22;9340;48.756;9.226;2022-12-17T10:46:27;0.70;99.90
18426;DHT22;9340;48.756;9.226;2022-12-17T10:49:14;0.70;99.90
18426;DHT22;9340;48.756;9.226;2022-12-17T10:52:00;0.70;99.90
18426;DHT22;9340;48.756;9.226;2022-12-17T10:54:55;0.70;99.90
18426;DHT22;9340;48.756;9.226;2022-12-17T10:57:40;0.60;99.90
18426;DHT22;9340;48.756;9.226;2022-12-17T11:00:29;0.80;99.90
18426;DHT22;9340;48.756;9.226;2022-12-17T11:03:28;0.70;99.90
18426;DHT22;9340;48.756;9.226;2022-12-17T11:06:17;0.80;99.90
18426;DHT22;9340;48.756;9.226;2022-12-17T11:09:12;0.80;99.90
18426;DHT22;9340;48.756;9.226;2022-12-17T11:11:58;0.60;99.90
18426;DHT22;9340;48.756;9.226;2022-12-17T11:14:49;0.60;99.90
18426;DHT22;9340;48.756;9.226;2022-12-17T11:17:37;0.60;99.90
18426;DHT22;9340;48.756;9.226;2022-12-17T11:20:25;0.90;99.90
18426;DHT22;9340;48.756;9.226;2022-12-17T11:23:17;1.00;99.90
18426;DHT22;9340;48.756;9.226;2022-12-17T11:26:06;0.80;99.90
18426;DHT22;9340;48.756;9.226;2022-12-17T11:28:52;0.60;99.90
18426;DHT22;9340;48.756;9.226;2022-12-17T11:31:59;0.60;99.90
18426;DHT22;9340;48.756;9.226;2022-12-17T11:34:58;0.60;99.90
18426;DHT22;9340;48.756;9.226;2022-12-17T11:37:51;0.60;99.90
18426;DHT22;9340;48.756;9.226;2022-12-17T11:40:40;0.50;99.90
18426;DHT22;9340;48.756;9.226;2022-12-17T11:43:29;0.40;99.90
18426;DHT22;9340;48.756;9.226;2022-12-17T11:46:22;0.40;99.90
18426;DHT22;9340;48.756;9.226;2022-12-17T11:49:16;0.20;99.90
18426;DHT22;9340;48.756;9.226;2022-12-17T11:52:10;0.30;99.90
18426;DHT22;9340;48.756;9.226;2022-12-17T11:55:04;0.50;99.90
18426;DHT22;9340;48.756;9.226;2022-12-17T11:57:54;0.50;99.90
18426;DHT22;9340;48.756;9.226;2022-12-17T12:00:59;0.70;99.90
18426;DHT22;9340;48.756;9.226;2022-12-17T12:04:14;0.80;99.90
18426;DHT22;9340;48.756;9.226;2022-12-17T12:07:21;0.60;99.90
18426;DHT22;9340;48.756;9.226;2022-12-17T12:10:14;0.60;99.90
18426;DHT22;9340;48.756;9.226;2022-12-17T12:13:07;0.60;99.90
18426;DHT22;9340;48.756;9.226;2022-12-17T12:16:00;0.00;99.90
18426;DHT22;9340;48.756;9.226;2022-12-17T12:18:54;-0.10;99.90
18426;DHT22;9340;48.756;9.226;2022-12-17T12:21:49;0.10;99.90
18426;DHT22;9340;48.756;9.226;2022-12-17T12:24:49;0.30;99.90
18426;DHT22;9340;48.756;9.226;2022-12-17T12:27:40;0.40;99.90
18426;DHT22;9340;48.756;9.226;2022-12-17T12:30:36;0.50;99.90
18426;DHT22;9340;48.756;9.226;2022-12-17T12:33:31;0.60;99.90
18426;DHT22;9340;48.756;9.226;2022-12-17T12:36:18;0.60;99.90
18426;DHT22;9340;48.756;9.226;2022-12-17T12:39:04;0.70;99.90
18426;DHT22;9340;48.756;9.226;2022-12-17T12:41:58;0.80;99.90
18426;DHT22;9340;48.756;9.226;2022-12-17T12:44:49;0.80;99.90
18426;DHT22;9340;48.756;9.226;2022-12-17T12:47:42;0.70;99.90
18426;DHT22;9340;48.756;9.226;2022-12-17T12:50:37;0.10;99.90
18426;DHT22;9340;48.756;9.226;2022-12-17T12:53:24;-0.10;99.90
18426;DHT22;9340;48.756;9.226;2022-12-17T12:56:27;-0.20;99.90
18426;DHT22;9340;48.756;9.226;2022-12-17T12:59:24;-0.10;99.90
18426;DHT22;9340;48.756;9.226;2022-12-17T13:02:21;0.10;99.90
18426;DHT22;9340;48.756;9.226;2022-12-17T13:05:26;0.20;99.90
18426;DHT22;9340;48.756;9.226;2022-12-17T13:08:16;0.20;99.90
18426;DHT22;9340;48.756;9.226;2022-12-17T13:10:44;0.10;99.90
18426;DHT22;9340;48.756;9.226;2022-12-17T13:13:26;-0.20;99.90
18426;DHT22;9340;48.756;9.226;2022-12-17T13:16:00;-0.30;99.90
18426;DHT22;9340;48.756;9.226;2022-12-17T13:18:31;-0.60;99.90
18426;DHT22;9340;48.756;9.226;2022-12-17T13:21:00;-0.70;99.90
18426;DHT22;9340;48.756;9.226;2022-12-17T13:23:32;-0.90;99.90
18426;DHT22;9340;48.756;9.226;2022-12-17T13:26:16;-1.10;99.90
18426;DHT22;9340;48.756;9.226;2022-12-17T13:28:58;-1.30;99.90
18426;DHT22;9340;48.756;9.226;2022-12-17T13:31:30;-1.50;99.90
18426;DHT22;9340;48.756;9.226;2022-12-17T13:34:08;-1.60;99.90
18426;DHT22;9340;48.756;9.226;2022-12-17T13:36:43;-1.70;99.90
18426;DHT22;9340;48.756;9.226;2022-12-17T13:39:25;-1.60;99.90
18426;DHT22;9340;48.756;9.226;2022-12-17T13:41:55;-1.90;99.90
18426;DHT22;9340;48.756;9.226;2022-12-17T13:44:23;-1.90;99.90
18426;DHT22;9340;48.756;9.226;2022-12-17T13:46:53;-2.10;99.90
18426;DHT22;9340;48.756;9.226;2022-12-17T13:49:22;-2.30;99.90
18426;DHT22;9340;48.756;9.226;2022-12-17T13:51:59;-2.30;99.90
18426;DHT22;9340;48.756;9.226;2022-12-17T13:54:27;-2.30;99.90
18426;DHT22;9340;48.756;9.226;2022-12-17T13:56:54;-2.20;99.90
18426;DHT22;9340;48.756;9.226;2022-12-17T13:59:31;-2.20;99.90
18426;DHT22;9340;48.756;9.226;2022-12-17T14:02:00;-2.10;99.90
18426;DHT22;9340;48.756;9.226;2022-12-17T14:04:29;-2.10;99.90
18426;DHT22;9340;48.756;9.226;2022-12-17T14:06:58;-2.10;99.90
18426;DHT22;9340;48.756;9.226;2022-12-17T14:09:31;-2.20;99.90
18426;DHT22;9340;48.756;9.226;2022-12-17T14:11:58;-2.50;99.90
18426;DHT22;9340;48.756;9.226;2022-12-17T14:14:47;-2.50;99.90
18426;DHT22;9340;48.756;9.226;2022-12-17T14:17:18;-2.50;99.90
18426;DHT22;9340;48.756;9.226;2022-12-17T14:19:46;-2.50;99.90
18426;DHT22;9340;48.756;9.226;2022-12-17T14:22:18;-2.60;99.90
18426;DHT22;9340;48.756;9.226;2022-12-17T14:24:50;-2.70;99.90
18426;DHT22;9340;48.756;9.226;2022-12-17T14:27:22;-2.70;99.90
18426;DHT22;9340;48.756;9.226;2022-12-17T14:29:50;-2.80;99.90
18426;DHT22;9340;48.756;9.226;2022-12-17T14:32:31;-2.80;99.90
18426;DHT22;9340;48.756;9.226;2022-12-17T14:34:59;-2.80;99.90
18426;DHT22;9340;48.756;9.226;2022-12-17T14:37:26;-2.80;99.90
18426;DHT22;9340;48.756;9.226;2022-12-17T14:39:59;-2.80;99.90
18426;DHT22;9340;48.756;9.226;2022-12-17T14:42:26;-2.90;99.90
18426;DHT22;9340;48.756;9.226;2022-12-17T14:44:56;-3.00;99.90
18426;DHT22;9340;48.756;9.226;2022-12-17T14:47:26;-3.10;99.90
18426;DHT22;9340;48.756;9.226;2022-12-17T14:49:57;-3.20;99.90
18426;DHT22;9340;48.756;9.226;2022-12-17T14:52:39;-3.40;99.90
18426;DHT22;9340;48.756;9.226;2022-12-17T14:55:37;-3.60;99.90
18426;DHT22;9340;48.756;9.226;2022-12-17T14:58:17;-3.70;99.90
18426;DHT22;9340;48.756;9.226;2022-12-17T15:00:46;-3.90;99.90
18426;DHT22;9340;48.756;9.226;2022-12-17T15:03:19;-3.90;99.90
18426;DHT22;9340;48.756;9.226;2022-12-17T15:05:50;-3.90;99.90
18426;DHT22;9340;48.756;9.226;2022-12-17T15:08:17;-3.90;99.90
18426;DHT22;9340;48.756;9.226;2022-12-17T15:10:45;-4.00;99.90
18426;DHT22;9340;48.756;9.226;2022-12-17T15:13:12;-4.00;99.90
18426;DHT22;9340;48.756;9.226;2022-12-17T15:15:39;-4.00;99.90
18426;DHT22;9340;48.756;9.226;2022-12-17T15:18:06;-4.10;99.90
18426;DHT22;9340;48.756;9.226;2022-12-17T15:20:35;-4.20;99.90
18426;DHT22;9340;48.756;9.226;2022-12-17T15:23:02;-4.30;99.90
18426;DHT22;9340;48.756;9.226;2022-12-17T15:25:29;-4.50;99.90
18426;DHT22;9340;48.756;9.226;2022-12-17T15:27:56;-4.60;99.90
18426;DHT22;9340;48.756;9.226;2022-12-17T15:30:23;-4.60;99.90
18426;DHT22;9340;48.756;9.226;2022-12-17T15:32:50;-4.70;99.90
18426;DHT22;9340;48.756;9.226;2022-12-17T15:35:17;-4.80;99.90
18426;DHT22;9340;48.756;9.226;2022-12-17T15:37:45;-4.80;99.90
18426;DHT22;9340;48.756;9.226;2022-12-17T15:40:12;-4.70;99.90
18426;DHT22;9340;48.756;9.226;2022-12-17T15:42:39;-4.90;99.90
18426;DHT22;9340;48.756;9.226;2022-12-17T15:45:24;-4.90;99.90
18426;DHT22;9340;48.756;9.226;2022-12-17T15:47:51;-5.00;99.90
18426;DHT22;9340;48.756;9.226;2022-12-17T15:50:17;-5.10;99.90
18426;DHT22;9340;48.756;9.226;2022-12-17T15:52:46;-5.10;99.90
18426;DHT22;9340;48.756;9.226;2022-12-17T15:55:13;-5.20;99.90
18426;DHT22;9340;48.756;9.226;2022-12-17T15:57:41;-5.20;99.90
18426;DHT22;9340;48.756;9.226;2022-12-17T16:00:09;-5.30;99.90
18426;DHT22;9340;48.756;9.226;2022-12-17T16:02:36;-5.20;99.90
18426;DHT22;9340;48.756;9.226;2022-12-17T16:05:04;-5.30;99.90
18426;DHT22;9340;48.756;9.226;2022-12-17T16:07:31;-5.30;99.90
18426;DHT22;9340;48.756;9.226;2022-12-17T16:09:59;-5.60;99.90
18426;DHT22;9340;48.756;9.226;2022-12-17T16:12:26;-5.70;99.90
18426;DHT22;9340;48.756;9.226;2022-12-17T16:14:53;-5.60;99.90
18426;DHT22;9340;48.756;9.226;2022-12-17T16:17:20;-5.60;99.90
18426;DHT22;9340;48.756;9.226;2022-12-17T16:19:47;-5.50;99.90
18426;DHT22;9340;48.756;9.226;2022-12-17T16:22:14;-5.60;99.90
18426;DHT22;9340;48.756;9.226;2022-12-17T16:24:40;-5.60;99.90
18426;DHT22;9340;48.756;9.226;2022-12-17T16:27:09;-5.70;99.90
18426;DHT22;9340;48.756;9.226;2022-12-17T16:29:36;-5.80;99.90
18426;DHT22;9340;48.756;9.226;2022-12-17T16:32:03;-5.80;99.90
18426;DHT22;9340;48.756;9.226;2022-12-17T16:34:30;-5.90;99.90
18426;DHT22;9340;48.756;9.226;2022-12-17T16:36:57;-5.70;99.90
18426;DHT22;9340;48.756;9.226;2022-12-17T16:39:26;-5.80;99.90
18426;DHT22;9340;48.756;9.226;2022-12-17T16:41:53;-5.90;99.90
18426;DHT22;9340;48.756;9.226;2022-12-17T16:44:21;-6.00;99.90
18426;DHT22;9340;48.756;9.226;2022-12-17T16:46:48;-6.00;99.90
18426;DHT22;9340;48.756;9.226;2022-12-17T16:49:18;-6.10;99.90
18426;DHT22;9340;48.756;9.226;2022-12-17T16:51:48;-6.10;99.90
18426;DHT22;9340;48.756;9.226;2022-12-17T16:54:16;-6.00;99.90
18426;DHT22;9340;48.756;9.226;2022-12-17T16:56:44;-6.10;99.90
18426;DHT22;9340;48.756;9.226;2022-12-17T16:59:13;-6.10;99.90
18426;DHT22;9340;48.756;9.226;2022-12-17T17:01:44;-6.00;99.90
18426;DHT22;9340;48.756;9.226;2022-12-17T17:04:12;-6.20;99.90
18426;DHT22;9340;48.756;9.226;2022-12-17T17:06:40;-6.20;99.90
18426;DHT22;9340;48.756;9.226;2022-12-17T17:09:07;-6.20;99.90
18426;DHT22;9340;48.756;9.226;2022-12-17T17:11:34;-6.30;99.90
18426;DHT22;9340;48.756;9.226;2022-12-17T17:14:02;-6.30;99.90
18426;DHT22;9340;48.756;9.226;2022-12-17T17:16:29;-6.30;99.90
18426;DHT22;9340;48.756;9.226;2022-12-17T17:18:57;-6.20;99.90
18426;DHT22;9340;48.756;9.226;2022-12-17T17:21:26;-6.20;99.90
18426;DHT22;9340;48.756;9.226;2022-12-17T17:23:56;-6.00;99.90
18426;DHT22;9340;48.756;9.226;2022-12-17T17:26:26;-6.20;99.90